Time;durP1;ratioP1;P1;durP2;ratioP2;P2;SDS_P1;SDS_P2;PMS_P1;PMS_P2;Temp;Humidity;BMP_temperature;BMP_pressure;BME280_temperature;BME280_humidity;BME280_pressure;Samples;Min_cycle;Max_cycle;Signal;HPM_P1;HPM_P2
2022/10/10 00:01:40;;;;;;;3.93;2.07;;;9.40;99.90;;;;;;4930742;29;20690;-66
2022/10/10 00:04:06;;;;;;;3.27;2.33;;;9.30;99.90;;;;;;4912109;29;20187;-65
2022/10/10 00:06:31;;;;;;;5.63;2.60;;;9.30;99.90;;;;;;4925568;29;20944;-65
2022/10/10 00:08:57;;;;;;;6.10;2.70;;;9.30;99.90;;;;;;4916551;29;20753;-65
2022/10/10 00:11:23;;;;;;;2.80;2.37;;;9.30;99.90;;;;;;4926694;29;20290;-65
2022/10/10 00:13:49;;;;;;;7.77;2.60;;;9.20;99.90;;;;;;4917923;29;20829;-65
2022/10/10 00:16:16;;;;;;;6.57;2.27;;;9.20;99.90;;;;;;4927525;29;20239;-66
2022/10/10 00:18:42;;;;;;;3.87;2.23;;;9.20;99.90;;;;;;4918839;28;20187;-66
2022/10/10 00:21:08;;;;;;;5.67;2.77;;;9.10;99.90;;;;;;4939169;29;20195;-65
2022/10/10 00:23:34;;;;;;;3.70;2.40;;;9.10;99.90;;;;;;4923624;28;20192;-66
2022/10/10 00:26:00;;;;;;;7.33;3.40;;;9.10;99.90;;;;;;4934056;29;20214;-66
2022/10/10 00:28:26;;;;;;;3.97;2.30;;;9.20;99.90;;;;;;4912735;29;20208;-65
2022/10/10 00:30:51;;;;;;;3.50;2.40;;;9.10;99.90;;;;;;4935697;29;20613;-66
2022/10/10 00:33:17;;;;;;;3.30;2.80;;;9.10;99.90;;;;;;4917966;29;20246;-66
2022/10/10 00:35:42;;;;;;;2.37;2.17;;;9.00;99.90;;;;;;4930514;29;20222;-66
2022/10/10 00:38:08;;;;;;;4.20;2.17;;;9.00;99.90;;;;;;4919801;29;20204;-66
2022/10/10 00:40:34;;;;;;;5.60;2.53;;;9.00;99.90;;;;;;4920871;29;20206;-66
2022/10/10 00:43:00;;;;;;;5.50;2.60;;;9.00;99.90;;;;;;4922367;29;20205;-65
2022/10/10 00:45:30;;;;;;;9.60;2.63;;;8.90;99.90;;;;;;4938666;29;20194;-65
2022/10/10 00:48:02;;;;;;;3.70;2.70;;;9.00;99.90;;;;;;4906307;29;20211;-66
2022/10/10 00:50:29;;;;;;;6.00;2.60;;;8.90;99.90;;;;;;4926908;29;20612;-65
2022/10/10 00:52:55;;;;;;;3.90;2.40;;;9.00;99.90;;;;;;4921562;29;20432;-66
2022/10/10 00:55:21;;;;;;;5.20;2.63;;;9.00;99.90;;;;;;4935963;29;20215;-65
2022/10/10 00:57:47;;;;;;;4.57;2.47;;;8.90;99.90;;;;;;4919053;29;20207;-65
2022/10/10 01:00:13;;;;;;;6.53;2.50;;;8.90;99.90;;;;;;4931405;29;20198;-66
2022/10/10 01:02:38;;;;;;;4.07;2.73;;;8.80;99.90;;;;;;4919544;29;20293;-65
2022/10/10 01:05:04;;;;;;;5.57;2.57;;;8.80;99.90;;;;;;4929395;29;20211;-65
2022/10/10 01:07:31;;;;;;;6.10;3.20;;;8.80;99.90;;;;;;4914506;28;20251;-66
2022/10/10 01:10:01;;;;;;;6.67;2.77;;;8.80;99.90;;;;;;4930279;29;20673;-66
2022/10/10 01:12:48;;;;;;;5.43;2.67;;;8.80;99.90;;;;;;4929643;28;20704;-66
2022/10/10 01:15:25;;;;;;;3.63;2.40;;;8.70;99.90;;;;;;4926103;29;20199;-66
2022/10/10 01:18:02;;;;;;;4.77;2.47;;;8.60;99.90;;;;;;4906461;29;21055;-67
2022/10/10 01:20:51;;;;;;;3.63;3.23;;;8.60;99.90;;;;;;4924327;29;20202;-64
2022/10/10 01:23:34;;;;;;;7.40;2.50;;;8.70;99.90;;;;;;4916695;29;20211;-66
2022/10/10 01:26:11;;;;;;;5.37;2.77;;;8.80;99.90;;;;;;4918969;29;20212;-65
2022/10/10 01:28:49;;;;;;;4.67;2.43;;;8.80;99.90;;;;;;4915677;29;20248;-65
2022/10/10 01:31:16;;;;;;;4.13;2.93;;;8.80;99.90;;;;;;4920257;29;20659;-65
2022/10/10 01:34:00;;;;;;;5.00;3.33;;;8.70;99.90;;;;;;4915528;29;20199;-65
2022/10/10 01:36:35;;;;;;;5.93;2.63;;;8.70;99.90;;;;;;4914648;29;20209;-65
2022/10/10 01:39:15;;;;;;;5.43;3.27;;;8.70;99.90;;;;;;4921000;29;20287;-67
2022/10/10 01:41:57;;;;;;;2.93;2.13;;;8.60;99.90;;;;;;4917118;29;20957;-67
2022/10/10 01:44:23;;;;;;;3.43;2.60;;;8.60;99.90;;;;;;4921141;29;20187;-66
2022/10/10 01:46:48;;;;;;;5.90;2.67;;;8.50;99.90;;;;;;4920763;29;20250;-67
2022/10/10 01:49:14;;;;;;;4.70;2.83;;;8.50;99.90;;;;;;4913110;29;20212;-67
2022/10/10 01:52:04;;;;;;;5.80;2.80;;;8.50;99.90;;;;;;4916700;29;20234;-68
2022/10/10 01:54:53;;;;;;;3.53;2.23;;;8.60;99.90;;;;;;4921002;28;20246;-67
2022/10/10 01:57:38;;;;;;;3.83;2.70;;;8.60;99.90;;;;;;4915923;29;20204;-64
2022/10/10 02:00:08;;;;;;;3.53;2.23;;;8.50;99.90;;;;;;4915923;29;20184;-64
2022/10/10 02:02:57;;;;;;;3.53;2.33;;;8.50;99.90;;;;;;4915730;29;20287;-64
2022/10/10 02:05:28;;;;;;;2.90;2.40;;;8.50;99.90;;;;;;4917090;29;20238;-65
2022/10/10 02:08:02;;;;;;;7.07;2.90;;;8.40;99.90;;;;;;4916767;29;20203;-65
2022/10/10 02:10:32;;;;;;;6.10;2.90;;;8.40;99.90;;;;;;4915534;29;20199;-66
2022/10/10 02:13:01;;;;;;;3.67;3.07;;;8.40;99.90;;;;;;4916472;28;20207;-66
2022/10/10 02:15:33;;;;;;;6.10;3.27;;;8.40;99.90;;;;;;4920920;29;20203;-65
2022/10/10 02:18:01;;;;;;;5.77;2.50;;;8.40;99.90;;;;;;4913829;29;20207;-66
2022/10/10 02:20:29;;;;;;;5.00;2.70;;;8.40;99.90;;;;;;4920840;29;20269;-65
2022/10/10 02:22:55;;;;;;;3.00;2.20;;;8.50;99.90;;;;;;4919462;29;20204;-65
2022/10/10 02:25:25;;;;;;;3.60;2.53;;;8.40;99.90;;;;;;4932175;29;20216;-69
2022/10/10 02:28:04;;;;;;;6.17;2.87;;;8.40;99.90;;;;;;4923667;29;20206;-69
2022/10/10 02:30:34;;;;;;;3.67;1.90;;;8.60;99.90;;;;;;4909755;29;20285;-69
2022/10/10 02:33:02;;;;;;;4.17;2.70;;;8.60;99.90;;;;;;4928503;28;20208;-65
2022/10/10 02:35:32;;;;;;;5.43;2.47;;;8.80;99.90;;;;;;4920516;29;20267;-68
2022/10/10 02:38:01;;;;;;;4.53;2.63;;;8.90;99.90;;;;;;4913029;29;20204;-65
2022/10/10 02:40:30;;;;;;;3.10;2.50;;;9.00;99.90;;;;;;4920562;29;20247;-67
2022/10/10 02:43:00;;;;;;;2.83;2.40;;;9.00;99.90;;;;;;4913891;28;20205;-66
2022/10/10 02:45:27;;;;;;;4.73;2.70;;;9.10;99.90;;;;;;4922535;29;20226;-68
2022/10/10 02:47:53;;;;;;;3.73;2.33;;;9.00;99.90;;;;;;4913305;29;20203;-68
2022/10/10 02:50:19;;;;;;;3.33;2.40;;;8.90;99.90;;;;;;4921221;28;20197;-67
2022/10/10 02:52:44;;;;;;;3.57;2.40;;;8.90;99.90;;;;;;4916388;29;20589;-70
2022/10/10 02:55:10;;;;;;;4.73;2.27;;;8.80;99.90;;;;;;4920650;29;20196;-68
2022/10/10 02:57:35;;;;;;;7.00;2.83;;;8.70;99.90;;;;;;4917473;29;20693;-68
2022/10/10 03:00:01;;;;;;;5.83;2.93;;;8.60;99.90;;;;;;4919395;28;20191;-67
2022/10/10 03:02:26;;;;;;;6.20;3.07;;;8.50;99.90;;;;;;4922712;29;20568;-67
2022/10/10 03:04:52;;;;;;;5.63;4.03;;;8.50;99.90;;;;;;4918727;28;20687;-68
2022/10/10 03:07:17;;;;;;;3.13;2.57;;;8.50;99.90;;;;;;4917815;29;20238;-68
2022/10/10 03:09:43;;;;;;;5.07;2.57;;;8.40;99.90;;;;;;4918566;29;20692;-67
2022/10/10 03:12:08;;;;;;;2.90;2.27;;;8.40;99.90;;;;;;4930260;28;20279;-67
2022/10/10 03:14:34;;;;;;;3.70;2.57;;;8.40;99.90;;;;;;4909396;29;20270;-67
2022/10/10 03:17:00;;;;;;;6.40;2.43;;;8.40;99.90;;;;;;4930693;29;20654;-67
2022/10/10 03:19:25;;;;;;;3.87;2.27;;;8.50;99.90;;;;;;4923437;29;20197;-67
2022/10/10 03:21:51;;;;;;;5.63;2.70;;;8.40;99.90;;;;;;4922114;29;20544;-68
2022/10/10 03:24:16;;;;;;;4.07;2.83;;;8.40;99.90;;;;;;4919532;29;20195;-68
2022/10/10 03:26:41;;;;;;;7.53;3.00;;;8.30;99.90;;;;;;4944207;29;20229;-68
2022/10/10 03:29:07;;;;;;;6.53;2.80;;;8.30;99.90;;;;;;4919973;29;20250;-68
2022/10/10 03:31:33;;;;;;;3.60;2.40;;;8.20;99.90;;;;;;4939180;29;20318;-68
2022/10/10 03:33:58;;;;;;;4.70;2.93;;;8.20;99.90;;;;;;4916156;29;20200;-68
2022/10/10 03:36:23;;;;;;;5.83;3.50;;;8.10;99.90;;;;;;4928265;29;20286;-68
2022/10/10 03:38:49;;;;;;;3.43;2.40;;;8.20;99.90;;;;;;4916446;29;20254;-69
2022/10/10 03:41:15;;;;;;;4.67;2.80;;;8.20;99.90;;;;;;4937065;28;20684;-68
2022/10/10 03:43:40;;;;;;;5.67;2.77;;;8.20;99.90;;;;;;4928193;29;20206;-69
2022/10/10 03:46:06;;;;;;;5.73;2.93;;;8.10;99.90;;;;;;4929542;29;20211;-68
2022/10/10 03:48:31;;;;;;;6.43;2.97;;;8.10;99.90;;;;;;4915691;29;20191;-67
2022/10/10 03:50:56;;;;;;;4.80;3.23;;;8.00;99.90;;;;;;4917687;29;20541;-67
2022/10/10 03:53:22;;;;;;;7.50;2.60;;;8.00;99.90;;;;;;4921726;29;20321;-68
2022/10/10 03:55:48;;;;;;;5.27;3.33;;;8.10;99.90;;;;;;4934967;29;20254;-68
2022/10/10 03:58:13;;;;;;;4.60;2.90;;;8.10;99.90;;;;;;4921051;29;20242;-68
2022/10/10 04:00:38;;;;;;;4.40;3.10;;;8.10;99.90;;;;;;4942065;29;20277;-68
2022/10/10 04:03:05;;;;;;;3.80;2.77;;;8.10;99.90;;;;;;4924133;29;20239;-67
2022/10/10 04:05:38;;;;;;;5.67;2.80;;;8.10;99.90;;;;;;4939989;29;20638;-67
2022/10/10 04:08:04;;;;;;;6.27;2.73;;;8.00;99.90;;;;;;4933012;29;20293;-67
2022/10/10 04:10:30;;;;;;;4.50;2.57;;;8.00;99.90;;;;;;4931156;29;20265;-66
2022/10/10 04:12:56;;;;;;;6.83;3.30;;;8.00;99.90;;;;;;4917441;29;20211;-67
2022/10/10 04:15:21;;;;;;;5.77;2.37;;;8.00;99.90;;;;;;4926361;29;20570;-67
2022/10/10 04:17:47;;;;;;;3.17;2.87;;;8.00;99.90;;;;;;4928533;29;20736;-67
2022/10/10 04:20:12;;;;;;;3.93;2.87;;;7.90;99.90;;;;;;4928044;28;20197;-69
2022/10/10 04:22:38;;;;;;;4.03;3.23;;;8.00;99.90;;;;;;4910201;28;20818;-68
2022/10/10 04:25:04;;;;;;;6.73;3.57;;;8.00;99.90;;;;;;4914867;28;20285;-68
2022/10/10 04:27:29;;;;;;;4.87;2.37;;;8.00;99.90;;;;;;4933034;29;20215;-68
2022/10/10 04:29:55;;;;;;;4.40;2.77;;;8.00;99.90;;;;;;4914864;29;20187;-69
2022/10/10 04:32:20;;;;;;;3.70;2.70;;;8.00;99.90;;;;;;4924036;28;20226;-68
2022/10/10 04:34:45;;;;;;;6.50;2.60;;;7.90;99.90;;;;;;4910893;29;20187;-68
2022/10/10 04:37:11;;;;;;;6.47;3.93;;;7.90;99.90;;;;;;4939423;29;20191;-66
2022/10/10 04:39:37;;;;;;;4.93;3.03;;;7.90;99.90;;;;;;4915828;29;20217;-68
2022/10/10 04:42:02;;;;;;;3.90;3.50;;;7.90;99.90;;;;;;4926548;29;20286;-69
2022/10/10 04:44:28;;;;;;;4.73;2.83;;;7.80;99.90;;;;;;4915127;29;20202;-69
2022/10/10 04:46:53;;;;;;;6.90;2.90;;;7.80;99.90;;;;;;4931773;28;20218;-69
2022/10/10 04:49:19;;;;;;;4.63;2.57;;;7.80;99.90;;;;;;4911851;29;20211;-68
2022/10/10 04:51:44;;;;;;;8.13;3.60;;;7.80;99.90;;;;;;4936558;29;20191;-69
2022/10/10 04:54:10;;;;;;;3.90;3.20;;;7.70;99.90;;;;;;4910280;29;20258;-67
2022/10/10 04:56:35;;;;;;;6.77;3.60;;;7.70;99.90;;;;;;4947552;28;20202;-67
2022/10/10 04:59:01;;;;;;;4.60;3.00;;;7.70;99.90;;;;;;4913953;28;20619;-65
2022/10/10 05:01:26;;;;;;;4.13;2.83;;;7.60;99.90;;;;;;4921538;29;20461;-64
2022/10/10 05:03:52;;;;;;;5.87;3.57;;;7.70;99.90;;;;;;4917649;29;20263;-66
2022/10/10 05:06:18;;;;;;;3.97;3.20;;;7.70;99.90;;;;;;4943395;29;20231;-65
2022/10/10 05:08:43;;;;;;;9.53;3.30;;;7.70;99.90;;;;;;4920659;29;20203;-66
2022/10/10 05:11:09;;;;;;;7.00;2.93;;;7.70;99.90;;;;;;4936840;29;20203;-66
2022/10/10 05:13:34;;;;;;;3.97;3.17;;;7.70;99.90;;;;;;4931870;29;21041;-66
2022/10/10 05:16:00;;;;;;;5.27;3.57;;;7.70;99.90;;;;;;4938241;29;20277;-65
2022/10/10 05:18:25;;;;;;;5.03;3.13;;;7.80;99.90;;;;;;4920067;29;20239;-66
2022/10/10 05:20:51;;;;;;;4.40;2.57;;;7.70;99.90;;;;;;4939466;29;20331;-66
2022/10/10 05:23:16;;;;;;;6.60;3.43;;;7.70;99.90;;;;;;4933554;29;20230;-66
2022/10/10 05:25:43;;;;;;;8.93;3.63;;;7.70;99.90;;;;;;4928029;28;20219;-66
2022/10/10 05:28:09;;;;;;;5.10;3.40;;;7.70;99.90;;;;;;4934178;29;20883;-67
2022/10/10 05:30:34;;;;;;;5.27;3.97;;;7.70;99.90;;;;;;4944327;29;20195;-67
2022/10/10 05:33:00;;;;;;;6.47;3.70;;;7.70;99.90;;;;;;4932765;29;20203;-65
2022/10/10 05:35:25;;;;;;;7.67;3.20;;;7.70;99.90;;;;;;4910241;28;20219;-66
2022/10/10 05:37:51;;;;;;;6.40;3.27;;;7.70;99.90;;;;;;4929782;29;20227;-65
2022/10/10 05:40:17;;;;;;;9.63;3.13;;;7.70;99.90;;;;;;4913429;29;20247;-66
2022/10/10 05:42:43;;;;;;;5.43;3.13;;;7.70;99.90;;;;;;4939221;29;20211;-66
2022/10/10 05:45:09;;;;;;;6.20;4.20;;;7.70;99.90;;;;;;4908789;29;20242;-65
2022/10/10 05:47:35;;;;;;;4.33;3.27;;;7.70;99.90;;;;;;4932555;29;20198;-65
2022/10/10 05:50:00;;;;;;;6.47;3.60;;;7.80;99.90;;;;;;4920022;29;20242;-65
2022/10/10 05:52:27;;;;;;;6.67;3.70;;;7.70;99.90;;;;;;4933111;29;20226;-64
2022/10/10 05:54:52;;;;;;;8.50;3.77;;;7.70;99.90;;;;;;4910490;29;20207;-65
2022/10/10 05:57:18;;;;;;;11.07;3.93;;;7.70;99.90;;;;;;4927578;29;20238;-64
2022/10/10 05:59:43;;;;;;;6.03;3.83;;;7.70;99.90;;;;;;4920069;29;20235;-65
2022/10/10 06:02:11;;;;;;;6.87;3.67;;;7.70;99.90;;;;;;4942812;29;20211;-65
2022/10/10 06:04:37;;;;;;;5.93;3.93;;;7.70;99.90;;;;;;4920180;29;20219;-65
2022/10/10 06:07:02;;;;;;;4.43;3.60;;;7.80;99.90;;;;;;4937506;29;20222;-65
2022/10/10 06:09:27;;;;;;;7.80;4.13;;;7.80;99.90;;;;;;4917255;29;20206;-64
2022/10/10 06:11:53;;;;;;;4.63;3.13;;;7.80;99.90;;;;;;4933837;29;20198;-65
2022/10/10 06:14:18;;;;;;;7.80;3.70;;;7.90;99.90;;;;;;4918580;29;20689;-65
2022/10/10 06:16:44;;;;;;;14.17;4.27;;;7.90;99.90;;;;;;4930414;28;20199;-65
2022/10/10 06:19:10;;;;;;;6.73;3.20;;;7.90;99.90;;;;;;4924769;29;20247;-64
2022/10/10 06:21:35;;;;;;;6.03;3.90;;;8.00;99.90;;;;;;4921705;29;20196;-64
2022/10/10 06:24:01;;;;;;;5.47;3.57;;;8.00;99.90;;;;;;4917065;29;20267;-66
2022/10/10 06:26:26;;;;;;;9.23;3.80;;;8.00;99.90;;;;;;4926155;29;20878;-65
2022/10/10 06:28:52;;;;;;;5.93;3.60;;;8.00;99.90;;;;;;4921216;29;20200;-65
2022/10/10 06:31:18;;;;;;;6.90;3.53;;;8.00;99.90;;;;;;4938120;29;20230;-65
2022/10/10 06:33:45;;;;;;;4.50;3.30;;;7.90;99.90;;;;;;4918808;29;20208;-67
2022/10/10 06:36:12;;;;;;;5.57;3.23;;;8.00;99.90;;;;;;4941157;29;20305;-65
2022/10/10 06:38:39;;;;;;;8.47;3.43;;;8.10;99.90;;;;;;4908926;29;20208;-65
2022/10/10 06:41:06;;;;;;;6.97;3.90;;;8.10;99.90;;;;;;4939693;29;20211;-65
2022/10/10 06:43:32;;;;;;;6.00;3.33;;;8.10;99.90;;;;;;4934859;29;20273;-65
2022/10/10 06:45:58;;;;;;;7.33;4.33;;;8.20;99.90;;;;;;4922477;29;20962;-65
2022/10/10 06:48:24;;;;;;;4.53;3.27;;;8.30;99.90;;;;;;4928719;29;20316;-65
2022/10/10 06:51:02;;;;;;;4.43;3.97;;;8.30;99.90;;;;;;4928861;29;20207;-65
2022/10/10 06:53:28;;;;;;;7.20;3.23;;;8.40;99.90;;;;;;4919137;29;20242;-65
2022/10/10 06:55:54;;;;;;;5.67;3.30;;;8.40;99.90;;;;;;4940433;29;20614;-66
2022/10/10 06:58:21;;;;;;;6.87;3.70;;;8.40;99.90;;;;;;4934005;29;20219;-65
2022/10/10 07:00:51;;;;;;;6.97;3.57;;;8.50;99.90;;;;;;4918813;29;20227;-66
2022/10/10 07:03:16;;;;;;;3.77;3.20;;;8.50;99.90;;;;;;4921393;29;20212;-65
2022/10/10 07:05:43;;;;;;;5.03;3.10;;;8.60;99.90;;;;;;4924869;29;20222;-65
2022/10/10 07:08:09;;;;;;;7.33;5.03;;;8.60;99.90;;;;;;4933554;29;20216;-65
2022/10/10 07:10:34;;;;;;;5.80;3.60;;;8.70;99.90;;;;;;4911796;28;20202;-65
2022/10/10 07:13:00;;;;;;;7.73;3.80;;;8.70;99.90;;;;;;4937772;29;20205;-65
2022/10/10 07:15:25;;;;;;;7.43;3.93;;;8.80;99.90;;;;;;4918366;29;20554;-66
2022/10/10 07:17:57;;;;;;;5.50;4.10;;;8.80;99.90;;;;;;4923442;29;20302;-66
2022/10/10 07:20:23;;;;;;;4.93;3.97;;;8.80;99.90;;;;;;4917507;29;20269;-64
2022/10/10 07:22:48;;;;;;;4.87;3.63;;;8.80;99.90;;;;;;4925063;29;20473;-64
2022/10/10 07:25:13;;;;;;;6.43;3.50;;;8.80;99.90;;;;;;4913715;29;20183;-65
2022/10/10 07:27:39;;;;;;;5.37;3.37;;;8.80;99.90;;;;;;4931716;29;20287;-65
2022/10/10 07:30:05;;;;;;;7.43;3.10;;;8.90;99.90;;;;;;4909317;29;20176;-65
2022/10/10 07:32:30;;;;;;;3.93;3.17;;;8.80;99.90;;;;;;4931547;29;20527;-65
2022/10/10 07:34:57;;;;;;;4.57;3.57;;;8.80;99.90;;;;;;4915198;29;20211;-65
2022/10/10 07:37:23;;;;;;;5.97;3.23;;;8.80;99.90;;;;;;4940078;29;20293;-65
2022/10/10 07:39:51;;;;;;;4.93;3.90;;;8.90;99.90;;;;;;4921721;29;20230;-65
2022/10/10 07:42:17;;;;;;;4.77;3.40;;;9.00;99.90;;;;;;4937296;29;20213;-65
2022/10/10 07:44:42;;;;;;;5.53;3.73;;;9.10;99.90;;;;;;4915181;28;20214;-65
2022/10/10 07:47:08;;;;;;;4.00;2.93;;;9.10;99.90;;;;;;4934191;29;20224;-65
2022/10/10 07:49:33;;;;;;;4.47;3.80;;;9.30;99.90;;;;;;4920462;29;20203;-65
2022/10/10 07:51:59;;;;;;;6.63;3.17;;;9.30;99.90;;;;;;4936895;29;20203;-65
2022/10/10 07:54:25;;;;;;;5.00;3.20;;;9.40;99.90;;;;;;4916866;28;20695;-65
2022/10/10 07:56:50;;;;;;;4.17;3.60;;;9.40;99.90;;;;;;4931662;29;20200;-65
2022/10/10 07:59:16;;;;;;;5.50;3.30;;;9.40;99.90;;;;;;4920604;29;20227;-65
2022/10/10 08:01:42;;;;;;;6.93;3.70;;;9.40;99.90;;;;;;4923528;29;20207;-65
2022/10/10 08:04:07;;;;;;;6.27;4.00;;;9.50;99.90;;;;;;4918392;29;20215;-65
2022/10/10 08:06:33;;;;;;;6.47;3.90;;;9.50;99.90;;;;;;4938648;29;20310;-64
2022/10/10 08:08:58;;;;;;;8.27;4.17;;;9.60;99.90;;;;;;4923051;29;20203;-64
2022/10/10 08:11:24;;;;;;;4.47;2.97;;;9.60;99.90;;;;;;4925834;29;20326;-65
2022/10/10 08:13:50;;;;;;;5.20;3.00;;;9.70;99.90;;;;;;4925014;29;20211;-65
2022/10/10 08:16:16;;;;;;;3.97;2.97;;;9.70;99.90;;;;;;4921571;29;20196;-69
2022/10/10 08:18:42;;;;;;;6.47;3.17;;;9.60;99.90;;;;;;4927265;29;20955;-66
2022/10/10 08:21:10;;;;;;;6.13;3.20;;;9.70;99.90;;;;;;4910586;28;20205;-65
2022/10/10 08:23:36;;;;;;;4.40;3.03;;;9.70;99.90;;;;;;4927836;28;20355;-64
2022/10/10 08:26:04;;;;;;;6.00;3.07;;;9.80;99.90;;;;;;4915579;29;20342;-65
2022/10/10 08:28:30;;;;;;;5.90;3.30;;;10.00;99.90;;;;;;4918898;29;20212;-65
2022/10/10 08:30:55;;;;;;;3.40;2.77;;;10.10;99.90;;;;;;4909745;29;20193;-66
2022/10/10 08:33:21;;;;;;;5.30;3.60;;;10.20;99.90;;;;;;4924777;29;20319;-67
2022/10/10 08:35:47;;;;;;;3.27;2.87;;;10.10;99.90;;;;;;4916198;29;20667;-67
2022/10/10 08:38:13;;;;;;;9.17;3.43;;;10.20;99.90;;;;;;4927283;29;20210;-65
2022/10/10 08:40:46;;;;;;;5.60;2.90;;;10.30;99.90;;;;;;4907348;29;20642;-66
2022/10/10 08:43:23;;;;;;;5.77;3.50;;;10.40;99.90;;;;;;4905553;29;20727;-65
2022/10/10 08:45:50;;;;;;;3.70;3.40;;;10.50;99.90;;;;;;4920309;29;20220;-65
2022/10/10 08:48:23;;;;;;;6.90;3.53;;;10.60;99.90;;;;;;4938434;29;20291;-65
2022/10/10 08:50:55;;;;;;;6.37;3.90;;;10.70;99.90;;;;;;4917713;29;20479;-65
2022/10/10 08:53:31;;;;;;;4.90;3.97;;;10.80;99.90;;;;;;4909279;29;20237;-65
2022/10/10 08:55:57;;;;;;;3.67;2.90;;;10.90;99.90;;;;;;4923318;29;20193;-66
2022/10/10 08:58:25;;;;;;;5.07;2.90;;;11.00;99.90;;;;;;4912657;29;20264;-66
2022/10/10 09:01:04;;;;;;;4.80;3.47;;;11.10;99.90;;;;;;4914253;29;20653;-65
2022/10/10 09:03:45;;;;;;;4.70;3.40;;;11.20;99.90;;;;;;4910848;29;20247;-66
2022/10/10 09:06:41;;;;;;;4.37;3.30;;;11.30;99.90;;;;;;4916587;28;20201;-65
2022/10/10 09:09:34;;;;;;;4.63;2.97;;;11.50;99.90;;;;;;4912834;29;20962;-65
2022/10/10 09:12:30;;;;;;;3.97;2.90;;;11.60;99.90;;;;;;4922328;29;20779;-66
2022/10/10 09:15:03;;;;;;;2.53;2.23;;;11.80;99.90;;;;;;4915804;29;20210;-65
2022/10/10 09:17:56;;;;;;;4.20;2.80;;;12.00;99.90;;;;;;4927048;29;20198;-77
2022/10/10 09:20:35;;;;;;;6.30;2.93;;;12.20;99.90;;;;;;4927243;29;20218;-75
2022/10/10 09:23:31;;;;;;;4.97;3.33;;;12.50;99.90;;;;;;4913506;29;20287;-72
2022/10/10 09:26:04;;;;;;;4.80;2.73;;;12.70;99.90;;;;;;4921185;29;20213;-78
2022/10/10 09:28:35;;;;;;;3.23;2.70;;;12.80;99.90;;;;;;4915166;29;20246;-83
2022/10/10 09:31:04;;;;;;;4.47;2.40;;;12.90;99.90;;;;;;4919300;29;20186;-82
2022/10/10 09:33:46;;;;;;;5.10;2.87;;;12.90;99.90;;;;;;4920569;29;20548;-86
2022/10/10 09:36:17;;;;;;;2.90;2.37;;;13.00;99.90;;;;;;4920477;29;20201;-83
2022/10/10 09:38:52;;;;;;;3.83;2.27;;;13.20;99.90;;;;;;4912759;29;20207;-78
2022/10/10 09:41:39;;;;;;;3.00;2.37;;;13.30;99.90;;;;;;4916426;28;20189;-81
2022/10/10 09:44:10;;;;;;;4.20;2.80;;;13.50;99.90;;;;;;4917480;29;20308;-82
2022/10/10 09:46:36;;;;;;;4.77;2.70;;;13.70;99.90;;;;;;4919676;29;20223;-82
2022/10/10 09:49:02;;;;;;;4.80;2.70;;;13.70;99.90;;;;;;4930204;29;20214;-83
2022/10/10 09:51:28;;;;;;;3.20;2.90;;;13.80;99.90;;;;;;4939500;29;20647;-84
2022/10/10 09:53:54;;;;;;;5.63;2.83;;;13.90;99.90;;;;;;4923788;29;20231;-82
2022/10/10 09:56:31;;;;;;;3.13;2.67;;;14.00;99.90;;;;;;4919561;29;20202;-83
2022/10/10 09:58:57;;;;;;;3.07;2.63;;;14.00;99.90;;;;;;4922968;29;20202;-81
2022/10/10 10:01:30;;;;;;;4.70;3.20;;;13.90;99.90;;;;;;4914835;29;20586;-83
2022/10/10 10:04:15;;;;;;;3.93;2.70;;;13.90;99.90;;;;;;4938084;29;20269;-84
2022/10/10 10:06:45;;;;;;;4.77;2.73;;;13.80;99.90;;;;;;4932743;29;20629;-76
2022/10/10 10:09:18;;;;;;;3.07;2.40;;;13.80;99.90;;;;;;4929432;29;20304;-78
2022/10/10 10:11:45;;;;;;;4.83;3.13;;;13.80;99.90;;;;;;4923972;29;20270;-72
2022/10/10 10:14:24;;;;;;;3.27;2.77;;;13.90;99.90;;;;;;4915618;29;20195;-74
2022/10/10 10:16:51;;;;;;;5.90;2.30;;;13.90;99.90;;;;;;4918773;29;20189;-74
2022/10/10 10:19:40;;;;;;;3.60;2.57;;;14.10;99.90;;;;;;4914035;28;20214;-74
2022/10/10 10:22:22;;;;;;;3.77;2.73;;;14.20;99.90;;;;;;4916158;29;20175;-74
2022/10/10 10:24:48;;;;;;;3.97;3.37;;;14.20;99.90;;;;;;4918473;29;20202;-74
2022/10/10 10:27:22;;;;;;;3.70;2.73;;;14.30;99.90;;;;;;4926110;29;20214;-71
2022/10/10 10:29:53;;;;;;;4.20;2.60;;;14.50;99.90;;;;;;4920002;29;20585;-71
2022/10/10 10:32:55;;;;;;;4.30;2.80;;;14.70;99.90;;;;;;4909198;29;20771;-71
2022/10/10 10:35:27;;;;;;;3.63;2.80;;;14.90;99.90;;;;;;4921809;29;20251;-71
2022/10/10 10:38:22;;;;;;;8.57;3.07;;;15.00;99.90;;;;;;4937558;29;20693;-68
2022/10/10 10:41:04;;;;;;;4.90;2.57;;;15.20;99.90;;;;;;4919629;29;20191;-70
2022/10/10 10:44:00;;;;;;;2.07;1.97;;;15.20;99.90;;;;;;4926817;28;20668;-70
2022/10/10 10:46:48;;;;;;;3.40;2.80;;;15.20;99.90;;;;;;4912633;29;20207;-80
2022/10/10 10:49:27;;;;;;;3.37;2.47;;;15.40;99.90;;;;;;4919804;28;20789;-76
2022/10/10 10:52:16;;;;;;;4.20;2.57;;;15.60;99.90;;;;;;4926469;29;20444;-82
2022/10/10 10:54:41;;;;;;;3.07;2.40;;;15.80;99.90;;;;;;4922442;28;20302;-72
2022/10/10 10:57:32;;;;;;;2.70;2.30;;;16.00;99.90;;;;;;4927985;29;20294;-77
2022/10/10 11:00:14;;;;;;;3.03;2.67;;;16.10;99.90;;;;;;4926876;29;20211;-77
2022/10/10 11:03:09;;;;;;;3.43;2.67;;;16.20;99.80;;;;;;4921212;29;20281;-78
2022/10/10 11:05:43;;;;;;;3.37;2.67;;;16.30;99.90;;;;;;4913944;29;20222;-77
2022/10/10 11:08:46;;;;;;;5.00;2.27;;;16.40;99.90;;;;;;4920343;29;20176;-74
2022/10/10 11:11:27;;;;;;;5.10;2.33;;;16.50;99.90;;;;;;4916429;29;20183;-75
2022/10/10 11:14:40;;;;;;;3.33;2.30;;;16.60;99.90;;;;;;4913699;29;20199;-73
2022/10/10 11:17:48;;;;;;;2.90;2.17;;;16.80;99.40;;;;;;4918126;29;20199;-73
2022/10/10 11:20:40;;;;;;;3.37;2.33;;;16.90;99.00;;;;;;4913983;29;20211;-73
2022/10/10 11:23:32;;;;;;;3.37;1.90;;;17.10;99.50;;;;;;4913741;29;20628;-73
2022/10/10 11:26:19;;;;;;;3.13;2.10;;;17.20;98.70;;;;;;4917989;29;20255;-73
2022/10/10 11:29:16;;;;;;;5.10;2.33;;;17.30;98.70;;;;;;4909278;29;20211;-73
2022/10/10 11:31:59;;;;;;;3.67;2.50;;;17.50;98.30;;;;;;4907176;29;20654;-73
2022/10/10 11:34:32;;;;;;;4.23;2.20;;;17.60;97.60;;;;;;4916231;29;20566;-77
2022/10/10 11:37:06;;;;;;;5.27;2.63;;;17.60;97.20;;;;;;4921081;29;20297;-77
2022/10/10 11:39:49;;;;;;;5.23;2.77;;;17.70;98.00;;;;;;4933987;29;20236;-80
2022/10/10 11:42:20;;;;;;;3.83;2.20;;;17.90;97.40;;;;;;4916776;29;20183;-83
2022/10/10 11:44:58;;;;;;;5.33;2.80;;;18.00;98.40;;;;;;4915183;29;20210;-80
2022/10/10 11:47:44;;;;;;;3.37;2.63;;;18.30;96.90;;;;;;4916497;29;20218;-79
2022/10/10 11:50:32;;;;;;;3.87;2.60;;;18.50;96.60;;;;;;4917261;29;20282;-82
2022/10/10 11:53:01;;;;;;;3.53;2.73;;;18.60;96.00;;;;;;4918529;29;20282;-84
2022/10/10 11:55:51;;;;;;;2.97;2.63;;;18.80;95.80;;;;;;4920751;29;20208;-83
2022/10/10 11:58:42;;;;;;;3.03;2.37;;;19.00;95.70;;;;;;4919520;29;20185;-79
2022/10/10 12:01:31;;;;;;;3.10;2.67;;;19.10;94.80;;;;;;4916579;29;20325;-77
2022/10/10 12:03:57;;;;;;;3.77;2.53;;;19.20;94.50;;;;;;4913041;29;20202;-78
2022/10/10 12:06:32;;;;;;;3.40;2.63;;;19.30;94.50;;;;;;4908763;29;20204;-77
2022/10/10 12:09:05;;;;;;;2.63;2.43;;;19.50;93.80;;;;;;4906893;29;20211;-79
2022/10/10 12:11:36;;;;;;;7.83;2.77;;;19.50;93.70;;;;;;4920257;29;20284;-77
2022/10/10 12:14:06;;;;;;;3.53;2.97;;;19.60;93.30;;;;;;4910106;29;20866;-79
2022/10/10 12:16:36;;;;;;;2.93;2.47;;;19.70;93.20;;;;;;4913002;29;20223;-78
2022/10/10 12:19:12;;;;;;;3.10;2.17;;;19.90;92.80;;;;;;4932772;29;20226;-80
2022/10/10 12:22:03;;;;;;;4.03;2.40;;;19.90;92.40;;;;;;4927089;29;20200;-78
2022/10/10 12:24:35;;;;;;;2.80;2.33;;;20.10;92.30;;;;;;4918033;29;20208;-78
2022/10/10 12:27:00;;;;;;;3.97;2.17;;;20.30;91.90;;;;;;4922061;29;20270;-76
2022/10/10 12:29:43;;;;;;;4.87;2.70;;;20.40;91.30;;;;;;4929582;29;20204;-75
2022/10/10 12:32:24;;;;;;;2.90;2.13;;;20.50;91.60;;;;;;4942045;29;20603;-79
2022/10/10 12:34:49;;;;;;;2.30;2.10;;;20.80;90.80;;;;;;4906579;29;20264;-76
2022/10/10 12:37:32;;;;;;;3.60;2.33;;;21.00;90.50;;;;;;4927169;29;20201;-77
2022/10/10 12:40:07;;;;;;;5.10;2.57;;;21.10;90.30;;;;;;4921955;29;20214;-78
2022/10/10 12:42:37;;;;;;;3.17;2.60;;;21.10;90.10;;;;;;4923575;29;20193;-76
2022/10/10 12:45:32;;;;;;;3.37;2.53;;;21.30;89.30;;;;;;4908538;29;20212;-85
2022/10/10 12:48:20;;;;;;;3.87;2.40;;;21.20;88.90;;;;;;4918276;29;20220;-87
2022/10/10 12:50:58;;;;;;;4.37;3.13;;;21.40;89.10;;;;;;4919565;29;20230;-81
2022/10/10 12:53:28;;;;;;;3.53;2.30;;;21.80;90.50;;;;;;4920261;29;20230;-83
2022/10/10 12:55:57;;;;;;;6.00;2.53;;;22.30;86.20;;;;;;4915219;29;20199;-84
2022/10/10 12:58:38;;;;;;;4.57;2.70;;;22.30;85.40;;;;;;4920061;29;20234;-83
2022/10/10 13:01:17;;;;;;;3.00;2.20;;;22.30;86.60;;;;;;4916322;29;20302;-83
2022/10/10 13:03:46;;;;;;;3.23;2.37;;;22.70;84.60;;;;;;4916472;29;20194;-82
2022/10/10 13:06:23;;;;;;;8.73;2.77;;;22.80;84.10;;;;;;4912538;29;20230;-85
2022/10/10 13:08:51;;;;;;;4.00;2.07;;;23.00;82.10;;;;;;4918807;29;20302;-74
2022/10/10 13:11:17;;;;;;;2.83;2.27;;;23.10;83.00;;;;;;4917241;29;20192;-76
2022/10/10 13:13:54;;;;;;;3.80;2.17;;;23.40;81.50;;;;;;4932069;29;20642;-74